Time;durP1;ratioP1;P1;durP2;ratioP2;P2;SDS_P1;SDS_P2;PMS_P1;PMS_P2;Temp;Humidity;BMP_temperature;BMP_pressure;BME280_temperature;BME280_humidity;BME280_pressure;Samples;Min_cycle;Max_cycle;Signal;HPM_P1;HPM_P2
2021/03/31 00:01:13;;;;;;;;;;;307.60;1638.40;;;;;;5056068;28;20029;-77
2021/03/31 00:03:39;;;;;;;64.55;35.15;;;307.60;1638.40;;;;;;5053789;28;19909;-78
2021/03/31 00:06:05;;;;;;;;;;;307.60;1638.40;;;;;;5055007;28;20036;-78
2021/03/31 00:08:31;;;;;;;56.90;32.42;;;307.60;1638.40;;;;;;5055347;28;19908;-77
2021/03/31 00:10:59;;;;;;;72.75;38.17;;;307.60;1638.40;;;;;;5055101;28;20110;-78
2021/03/31 00:13:25;;;;;;;108.60;53.90;;;307.60;1638.40;;;;;;5055300;28;20029;-78
2021/03/31 00:15:53;;;;;;;174.65;85.57;;;307.60;1638.40;;;;;;5036792;28;20041;-76
2021/03/31 00:18:21;;;;;;;168.68;86.07;;;307.70;1638.40;;;;;;5054784;28;20053;-78
2021/03/31 00:20:47;;;;;;;167.10;80.10;;;307.80;1612.80;;;;;;5054817;28;20052;-77
2021/03/31 00:23:16;;;;;;;157.23;74.35;;;307.70;1612.80;;;;;;5062682;28;20150;-78
2021/03/31 00:25:42;;;;;;;64.30;35.05;;;307.80;1612.80;;;;;;5057833;28;20025;-77
2021/03/31 00:28:12;;;;;;;72.95;38.92;;;307.70;1612.80;;;;;;5061715;28;20036;-78
2021/03/31 00:30:38;;;;;;;55.70;29.80;;;307.60;1664.00;;;;;;5063624;28;20189;-78
2021/03/31 00:33:05;;;;;;;50.10;28.27;;;307.60;1638.40;;;;;;5064966;28;20047;-79
2021/03/31 00:35:31;;;;;;;46.33;27.35;;;307.60;1638.40;;;;;;5061471;28;20096;-78
2021/03/31 00:37:57;;;;;;;51.33;32.08;;;307.60;1638.40;;;;;;5066070;28;20036;-78
2021/03/31 00:40:28;;;;;;;49.90;31.48;;;307.60;1638.40;;;;;;5060937;28;20028;-76
2021/03/31 00:42:54;;;;;;;45.95;28.40;;;307.50;1638.40;;;;;;5062034;28;20074;-78
2021/03/31 00:45:20;;;;;;;46.10;28.45;;;307.50;1638.40;;;;;;5063196;28;20036;-77
2021/03/31 00:47:45;;;;;;;44.78;28.08;;;307.50;1638.40;;;;;;5064582;28;20017;-78
2021/03/31 00:50:15;;;;;;;53.13;31.73;;;307.50;1664.00;;;;;;5068093;28;20027;-77
2021/03/31 00:52:42;;;;;;;73.03;38.13;;;307.50;1664.00;;;;;;5064920;28;20035;-78
2021/03/31 00:55:09;;;;;;;67.07;39.60;;;307.30;1689.60;;;;;;5056709;28;20024;-78
2021/03/31 00:57:35;;;;;;;61.08;36.03;;;307.30;1689.60;;;;;;5064436;28;20021;-78
2021/03/31 01:00:01;;;;;;;78.18;42.33;;;307.30;1689.60;;;;;;5061934;28;20071;-78
2021/03/31 01:02:27;;;;;;;;;;;307.30;1689.60;;;;;;5059675;28;20021;-78
2021/03/31 01:04:52;;;;;;;145.13;68.87;;;307.20;1689.60;;;;;;5065461;28;20015;-78
2021/03/31 01:07:18;;;;;;;;;;;282.50;1664.00;;;;;;5065932;28;20084;-78
2021/03/31 01:09:43;;;;;;;49.05;28.27;;;307.20;1689.60;;;;;;5064348;28;21549;-78
2021/03/31 01:12:28;;;;;;;;;;;307.30;1689.60;;;;;;5061986;28;20445;-78
2021/03/31 01:15:02;;;;;;;49.13;27.77;;;307.30;1689.60;;;;;;5061674;28;19908;-78
2021/03/31 01:17:52;;;;;;;56.70;28.70;;;307.30;1689.60;;;;;;5062678;28;20039;-78
2021/03/31 01:20:30;;;;;;;39.92;25.35;;;307.30;1664.00;;;;;;5058945;28;20023;-78
2021/03/31 01:23:13;;;;;;;45.33;27.15;;;307.30;1689.60;;;;;;5061997;28;20029;-76
2021/03/31 01:25:56;;;;;;;50.38;26.75;;;307.30;1689.60;;;;;;5058540;28;20492;-75
2021/03/31 01:28:43;;;;;;;45.67;26.33;;;307.20;1664.00;;;;;;5052955;28;20017;-77
2021/03/31 01:31:28;;;;;;;40.30;24.10;;;307.20;1664.00;;;;;;5052819;28;20100;-77
2021/03/31 01:34:19;;;;;;;39.15;24.17;;;307.20;1664.00;;;;;;5041118;28;20044;-76
2021/03/31 01:36:48;;;;;;;40.22;25.13;;;307.20;1689.60;;;;;;5062870;28;20104;-76
2021/03/31 01:39:14;;;;;;;50.08;26.70;;;307.20;1689.60;;;;;;5057675;28;20056;-76
2021/03/31 01:41:42;;;;;;;41.67;24.73;;;282.50;1664.00;;;;;;5066597;28;20460;-76
2021/03/31 01:44:11;;;;;;;49.80;23.17;;;282.50;1664.00;;;;;;5062109;28;20101;-76
2021/03/31 01:46:38;;;;;;;39.70;24.10;;;282.50;1664.00;;;;;;5056587;28;20092;-76
2021/03/31 01:49:07;;;;;;;43.05;24.02;;;282.40;1689.60;;;;;;5057025;28;20017;-76
2021/03/31 01:51:34;;;;;;;44.20;24.20;;;282.40;1689.60;;;;;;5063083;28;20021;-76
2021/03/31 01:54:01;;;;;;;37.90;24.27;;;282.30;1689.60;;;;;;5061980;28;20024;-76
2021/03/31 01:56:27;;;;;;;35.90;23.35;;;282.30;1689.60;;;;;;5064033;28;20464;-76
2021/03/31 01:58:57;;;;;;;42.95;26.30;;;282.30;1715.20;;;;;;5061191;28;20461;-76
2021/03/31 02:01:23;;;;;;;47.72;25.13;;;282.20;1715.20;;;;;;5061563;28;20012;-76
2021/03/31 02:03:57;;;;;;;38.45;25.00;;;282.20;1740.80;;;;;;5061488;28;20053;-75
2021/03/31 02:06:26;;;;;;;43.97;27.45;;;282.10;1740.80;;;;;;5062202;28;20490;-75
2021/03/31 02:08:53;;;;;;;54.38;30.98;;;282.10;1766.40;;;;;;5055221;28;20029;-76
2021/03/31 02:11:19;;;;;;;52.95;30.42;;;282.10;1766.40;;;;;;5060023;28;20045;-77
2021/03/31 02:13:49;;;;;;;43.90;25.58;;;282.00;1766.40;;;;;;5052405;28;20029;-77
2021/03/31 02:16:16;;;;;;;44.55;26.95;;;281.90;1792.00;;;;;;5060456;28;20074;-77
2021/03/31 02:18:43;;;;;;;40.92;25.58;;;281.90;1766.40;;;;;;5061344;28;20103;-77
2021/03/31 02:21:12;;;;;;;41.05;24.85;;;281.90;1766.40;;;;;;5062813;28;20016;-77
2021/03/31 02:23:38;;;;;;;42.00;25.35;;;282.00;1766.40;;;;;;5038979;28;20112;-77
2021/03/31 02:26:04;;;;;;;52.38;26.83;;;281.90;1766.40;;;;;;5063518;28;20118;-77
2021/03/31 02:28:31;;;;;;;45.97;26.27;;;282.00;1740.80;;;;;;5062717;28;20519;-77
2021/03/31 02:30:57;;;;;;;58.17;30.05;;;282.00;1740.80;;;;;;5071628;28;20052;-77
2021/03/31 02:33:25;;;;;;;52.30;29.00;;;282.10;1740.80;;;;;;5070056;28;20102;-77
2021/03/31 02:35:50;;;;;;;39.03;21.65;;;282.10;1740.80;;;;;;5066232;28;20013;-77
2021/03/31 02:38:17;;;;;;;34.92;22.77;;;282.10;1715.20;;;;;;5072620;28;20430;-77
2021/03/31 02:40:47;;;;;;;40.03;23.60;;;282.10;1715.20;;;;;;5062720;28;20079;-77
2021/03/31 02:43:15;;;;;;;40.60;24.52;;;282.00;1740.80;;;;;;5046825;28;20031;-77
2021/03/31 02:45:47;;;;;;;35.95;24.20;;;281.90;1740.80;;;;;;5068388;28;20020;-77
2021/03/31 02:48:16;;;;;;;39.63;23.65;;;281.90;1740.80;;;;;;5066059;28;20024;-77
2021/03/31 02:50:42;;;;;;;36.05;22.40;;;281.90;1740.80;;;;;;5058376;28;20025;-78
2021/03/31 02:53:09;;;;;;;39.95;23.65;;;281.90;1740.80;;;;;;5061425;28;20036;-77
2021/03/31 02:55:37;;;;;;;33.72;22.30;;;281.90;1740.80;;;;;;5072603;28;20012;-77
2021/03/31 02:58:06;;;;;;;48.58;24.63;;;281.90;1740.80;;;;;;5068207;28;20021;-77
2021/03/31 03:00:32;;;;;;;41.05;23.52;;;281.90;1766.40;;;;;;5064417;28;20029;-77
2021/03/31 03:03:00;;;;;;;42.03;24.00;;;281.90;1766.40;;;;;;5069648;28;20009;-77
2021/03/31 03:05:26;;;;;;;43.67;25.90;;;281.80;1766.40;;;;;;5070499;28;20028;-77
2021/03/31 03:07:52;;;;;;;50.03;28.00;;;281.80;1766.40;;;;;;5067696;28;20013;-76
2021/03/31 03:10:18;;;;;;;42.67;28.13;;;281.80;1792.00;;;;;;5065086;28;20131;-77
2021/03/31 03:12:52;;;;;;;41.78;26.80;;;281.80;1792.00;;;;;;5074313;28;20043;-77
2021/03/31 03:15:20;;;;;;;45.97;26.58;;;281.80;1792.00;;;;;;5063889;28;20020;-77
2021/03/31 03:17:47;;;;;;;41.58;24.67;;;281.70;1792.00;;;;;;5070702;28;20104;-77
2021/03/31 03:20:13;;;;;;;49.30;26.73;;;281.60;1792.00;;;;;;5068318;28;20019;-77
2021/03/31 03:22:42;;;;;;;37.95;24.13;;;281.70;1792.00;;;;;;5065951;28;20012;-77
2021/03/31 03:25:13;;;;;;;39.67;24.23;;;281.60;1792.00;;;;;;5050961;28;20035;-77
2021/03/31 03:27:42;;;;;;;48.13;27.38;;;281.60;1792.00;;;;;;5058874;28;20039;-77
2021/03/31 03:30:14;;;;;;;50.08;27.60;;;281.60;1792.00;;;;;;5049278;28;20432;-77
2021/03/31 03:32:42;;;;;;;45.78;26.90;;;281.60;1792.00;;;;;;5066648;28;20021;-77
2021/03/31 03:35:10;;;;;;;56.28;30.67;;;256.90;1792.00;;;;;;5063058;28;20020;-75
2021/03/31 03:37:36;;;;;;;63.97;33.38;;;256.80;1792.00;;;;;;5060881;28;20020;-78
2021/03/31 03:40:04;;;;;;;77.50;36.33;;;256.80;1792.00;;;;;;5063445;28;20126;-77
2021/03/31 03:42:30;;;;;;;86.40;37.67;;;256.90;1792.00;;;;;;5068415;28;20112;-77
2021/03/31 03:44:59;;;;;;;66.65;32.83;;;256.80;1792.00;;;;;;5068376;28;20524;-78
2021/03/31 03:47:26;;;;;;;42.10;25.58;;;256.80;1792.00;;;;;;5065497;28;20473;-78
2021/03/31 03:49:51;;;;;;;42.17;24.95;;;256.90;1766.40;;;;;;5063433;28;20392;-76
2021/03/31 03:52:17;;;;;;;52.97;27.95;;;256.90;1766.40;;;;;;5063620;28;20028;-77
2021/03/31 03:54:48;;;;;;;;;;;281.60;1792.00;;;;;;5047579;28;20358;-77
2021/03/31 03:57:14;;;;;;;83.90;37.97;;;281.60;1766.40;;;;;;5052729;28;19905;-77
2021/03/31 03:59:40;;;;;;;75.72;36.40;;;281.60;1766.40;;;;;;5062977;28;20040;-78
2021/03/31 04:02:05;;;;;;;;;;;281.60;1766.40;;;;;;5058436;28;20025;-77
2021/03/31 04:04:31;;;;;;;66.93;33.22;;;256.90;1766.40;;;;;;5063869;28;19917;-77
2021/03/31 04:06:59;;;;;;;;;;;256.40;1792.00;;;;;;5064109;28;20016;-77
2021/03/31 04:09:25;;;;;;;62.58;27.83;;;256.00;1843.20;;;;;;5059907;28;19905;-76
2021/03/31 04:11:51;;;;;;;41.90;20.02;;;231.20;1868.80;;;;;;5062437;28;20051;-78
2021/03/31 04:14:18;;;;;;;35.65;21.88;;;231.20;1843.20;;;;;;5062825;28;20518;-77
2021/03/31 04:16:46;;;;;;;35.13;20.98;;;231.10;1766.40;;;;;;5061733;28;20021;-77
2021/03/31 04:19:15;;;;;;;35.13;20.60;;;231.10;1766.40;;;;;;5062415;28;20476;-77
2021/03/31 04:21:42;;;;;;;45.97;21.00;;;231.20;1817.60;;;;;;5058675;28;20075;-77
2021/03/31 04:24:14;;;;;;;41.25;22.48;;;231.10;1843.20;;;;;;5045857;28;20055;-78
2021/03/31 04:26:41;;;;;;;45.67;25.98;;;230.80;1792.00;;;;;;5064747;28;20484;-75
2021/03/31 04:29:08;;;;;;;39.60;24.17;;;230.50;1843.20;;;;;;5065105;28;20468;-77
2021/03/31 04:31:36;;;;;;;42.00;24.52;;;230.40;1843.20;;;;;;5062588;28;20013;-77
2021/03/31 04:34:04;;;;;;;56.13;28.17;;;205.70;1868.80;;;;;;5056647;28;20104;-77
2021/03/31 04:36:30;;;;;;;48.55;27.45;;;205.30;1920.00;;;;;;5058850;28;20028;-77
2021/03/31 04:38:56;;;;;;;46.67;27.88;;;205.20;1920.00;;;;;;5070672;28;20066;-78
2021/03/31 04:41:22;;;;;;;;;;;205.20;1920.00;;;;;;5065835;28;20472;-77
2021/03/31 04:43:48;;;;;;;47.90;26.30;;;204.90;1945.60;;;;;;5060939;28;19939;-77
2021/03/31 04:46:14;;;;;;;;;;;204.80;1971.20;;;;;;5067878;28;20027;-75
2021/03/31 04:48:40;;;;;;;54.42;27.10;;;204.80;1996.80;;;;;;5061479;28;19905;-76
2021/03/31 04:51:07;;;;;;;54.08;30.65;;;204.80;1996.80;;;;;;5053787;28;20025;-75
2021/03/31 04:53:33;;;;;;;50.58;29.50;;;180.10;1996.80;;;;;;5054597;28;20025;-75
2021/03/31 04:56:00;;;;;;;51.03;27.90;;;180.10;1996.80;;;;;;5054110;28;20024;-74
2021/03/31 04:58:26;;;;;;;55.13;31.33;;;204.80;1996.80;;;;;;5054198;28;20099;-75
2021/03/31 05:00:51;;;;;;;51.30;29.65;;;204.80;1996.80;;;;;;5054058;28;20029;-75
2021/03/31 05:03:17;;;;;;;;;;;179.80;2048.00;;;;;;5054628;28;20432;-76
2021/03/31 05:05:43;;;;;;;47.60;27.33;;;180.00;2048.00;;;;;;5035900;28;19909;-75
2021/03/31 05:08:08;;;;;;;;;;;204.80;2022.40;;;;;;5054457;28;20112;-74
2021/03/31 05:10:34;;;;;;;58.75;28.77;;;204.80;2022.40;;;;;;5053724;28;19916;-75
2021/03/31 05:13:00;;;;;;;;;;;204.80;2022.40;;;;;;5054370;28;20087;-75
2021/03/31 05:15:26;;;;;;;51.40;27.17;;;180.10;2048.00;;;;;;5051890;28;19991;-76
2021/03/31 05:17:51;;;;;;;;;;;204.80;2073.60;;;;;;5052865;28;20124;-75
2021/03/31 05:20:18;;;;;;;78.93;28.35;;;204.80;2022.40;;;;;;5053630;28;19905;-75
2021/03/31 05:22:43;;;;;;;74.35;30.52;;;205.00;2048.00;;;;;;5053605;28;20079;-77
2021/03/31 05:25:09;;;;;;;;;;;205.30;2022.40;;;;;;5047980;28;20037;-77
2021/03/31 05:27:35;;;;;;;53.22;27.42;;;205.60;1996.80;;;;;;5038082;28;19965;-74
2021/03/31 05:30:03;;;;;;;;;;;230.40;1971.20;;;;;;5034020;28;20040;-75
2021/03/31 05:32:29;;;;;;;58.72;26.77;;;230.60;1971.20;;;;;;5034737;28;19916;-76
2021/03/31 05:34:54;;;;;;;;;;;230.70;1945.60;;;;;;5037877;28;20029;-76
2021/03/31 05:37:20;;;;;;;44.40;24.60;;;230.90;1945.60;;;;;;5042674;28;19912;-75
2021/03/31 05:39:46;;;;;;;;;;;231.10;1945.60;;;;;;5044415;28;20084;-76
2021/03/31 05:42:12;;;;;;;41.33;23.50;;;231.30;1920.00;;;;;;5038708;28;19917;-76
2021/03/31 05:44:38;;;;;;;;;;;256.10;1920.00;;;;;;5033601;28;20037;-75
2021/03/31 05:47:06;;;;;;;38.75;24.83;;;256.10;1920.00;;;;;;5032014;28;19904;-76
2021/03/31 05:49:31;;;;;;;43.35;23.95;;;256.10;1945.60;;;;;;5033343;28;20091;-77
2021/03/31 05:51:57;;;;;;;39.78;23.05;;;256.50;1920.00;;;;;;5033224;28;20096;-77
2021/03/31 05:54:24;;;;;;;;;;;256.70;1868.80;;;;;;5033801;28;20037;-76
2021/03/31 05:56:51;;;;;;;38.40;21.77;;;256.90;1920.00;;;;;;5033424;28;19905;-75
2021/03/31 05:59:17;;;;;;;36.22;19.67;;;281.60;1920.00;;;;;;5053233;28;20515;-76
2021/03/31 06:01:44;;;;;;;32.50;18.95;;;281.60;1894.40;;;;;;5052630;28;20532;-76
2021/03/31 06:04:10;;;;;;;35.72;17.70;;;281.60;1920.00;;;;;;5052660;28;20029;-75
2021/03/31 06:06:36;;;;;;;33.08;18.70;;;281.70;1894.40;;;;;;5052850;28;20029;-76
2021/03/31 06:09:09;;;;;;;39.78;18.65;;;281.80;1868.80;;;;;;5043254;28;20417;-75
2021/03/31 06:11:52;;;;;;;29.90;17.60;;;282.00;1843.20;;;;;;5043120;28;20095;-77
2021/03/31 06:14:36;;;;;;;29.65;18.02;;;282.20;1817.60;;;;;;5034641;28;20461;-76
2021/03/31 06:17:14;;;;;;;27.63;17.88;;;282.20;1817.60;;;;;;5049906;28;20431;-76
2021/03/31 06:19:43;;;;;;;29.88;16.95;;;282.00;1843.20;;;;;;5052800;28;20060;-76
2021/03/31 06:22:38;;;;;;;29.75;19.17;;;282.10;1868.80;;;;;;5049589;28;20103;-77
2021/03/31 06:25:17;;;;;;;29.48;18.35;;;282.10;1843.20;;;;;;5042365;28;20069;-75
2021/03/31 06:28:01;;;;;;;31.70;19.17;;;282.30;1817.60;;;;;;5046005;28;20473;-75
2021/03/31 06:30:28;;;;;;;33.90;18.52;;;307.20;1817.60;;;;;;5032949;28;20107;-75
2021/03/31 06:32:56;;;;;;;36.10;19.10;;;307.40;1817.60;;;;;;5014956;28;20029;-81
2021/03/31 06:35:28;;;;;;;28.02;17.35;;;307.50;1740.80;;;;;;5032568;28;20072;-79
2021/03/31 06:38:15;;;;;;;30.98;18.70;;;307.60;1766.40;;;;;;5036119;28;20017;-79
2021/03/31 06:40:45;;;;;;;32.70;20.52;;;307.50;1766.40;;;;;;5046971;28;20124;-79
2021/03/31 06:43:21;;;;;;;31.48;19.50;;;307.70;1740.80;;;;;;5029209;28;20040;-80
2021/03/31 06:46:11;;;;;;;30.42;18.33;;;307.70;1740.80;;;;;;5052795;28;20017;-80
2021/03/31 06:48:35;;;;;;;49.90;18.80;;;307.80;1715.20;;;;;;5052050;28;20041;-79
2021/03/31 06:51:00;;;;;;;32.50;18.50;;;308.00;1689.60;;;;;;5050706;28;20025;-78
2021/03/31 06:53:28;;;;;;;30.10;17.48;;;308.10;1766.40;;;;;;5052481;28;20056;-75
2021/03/31 06:56:12;;;;;;;32.35;17.95;;;308.00;1766.40;;;;;;5033637;28;20061;-78
2021/03/31 06:58:38;;;;;;;28.70;16.95;;;332.80;1740.80;;;;;;5044684;28;20031;-78
2021/03/31 07:01:23;;;;;;;33.80;17.88;;;332.90;1715.20;;;;;;5042803;28;20029;-78
2021/03/31 07:03:49;;;;;;;29.52;17.27;;;333.00;1766.40;;;;;;5040792;28;20025;-78
2021/03/31 07:06:17;;;;;;;50.05;19.58;;;333.00;1740.80;;;;;;5042971;28;20017;-77
2021/03/31 07:08:42;;;;;;;29.00;17.90;;;333.20;1740.80;;;;;;5040353;28;20071;-79
2021/03/31 07:11:08;;;;;;;25.00;16.02;;;333.20;1740.80;;;;;;5042058;28;20046;-79
2021/03/31 07:13:35;;;;;;;25.98;14.52;;;333.30;1638.40;;;;;;5023087;28;20065;-78
2021/03/31 07:16:05;;;;;;;29.38;14.90;;;333.40;1664.00;;;;;;5045221;28;20028;-78
2021/03/31 07:18:33;;;;;;;24.70;15.35;;;333.50;1587.20;;;;;;5046631;28;20017;-80
2021/03/31 07:21:00;;;;;;;22.02;13.13;;;333.70;1612.80;;;;;;5044721;28;20056;-76
2021/03/31 07:23:27;;;;;;;23.17;13.77;;;333.70;1510.40;;;;;;5047358;28;20021;-78
2021/03/31 07:25:54;;;;;;;23.05;13.80;;;358.40;1561.60;;;;;;5044792;28;20044;-80
2021/03/31 07:28:29;;;;;;;24.13;14.43;;;358.50;1484.80;;;;;;5025971;28;20505;-77
2021/03/31 07:30:57;;;;;;;25.67;14.27;;;358.60;1484.80;;;;;;5045807;28;20036;-79
2021/03/31 07:33:27;;;;;;;23.67;13.00;;;358.70;1484.80;;;;;;5037433;28;20028;-81
2021/03/31 07:35:54;;;;;;;25.48;14.50;;;358.70;1459.20;;;;;;5037383;28;20044;-77
2021/03/31 07:38:22;;;;;;;18.42;13.00;;;358.80;1459.20;;;;;;5055708;28;20021;-78
2021/03/31 07:40:49;;;;;;;21.98;13.45;;;358.90;1433.60;;;;;;5055677;28;20021;-78
2021/03/31 07:43:37;;;;;;;23.80;13.95;;;358.90;1433.60;;;;;;5052754;28;20067;-78
2021/03/31 07:46:23;;;;;;;26.00;12.70;;;359.00;1408.00;;;;;;5046114;28;20031;-76
2021/03/31 07:48:49;;;;;;;18.90;11.50;;;359.10;1408.00;;;;;;5045073;28;20079;-77
2021/03/31 07:51:16;;;;;;;19.92;12.57;;;359.30;1356.80;;;;;;5045900;28;20092;-76
2021/03/31 07:53:44;;;;;;;21.15;12.57;;;359.30;1382.40;;;;;;5046071;28;20071;-78
2021/03/31 07:56:22;;;;;;;24.45;14.73;;;384.00;1382.40;;;;;;5053867;28;20553;-78
2021/03/31 07:59:07;;;;;;;24.45;14.98;;;384.00;1356.80;;;;;;5053763;28;20017;-78
2021/03/31 08:01:38;;;;;;;20.83;11.57;;;384.10;1356.80;;;;;;5043137;28;20066;-79
2021/03/31 08:04:06;;;;;;;18.42;11.70;;;384.20;1331.20;;;;;;5055069;28;20104;-79
2021/03/31 08:06:33;;;;;;;20.88;12.48;;;384.20;1356.80;;;;;;5054410;28;20017;-80
2021/03/31 08:09:33;;;;;;;23.45;11.95;;;384.30;1356.80;;;;;;5055722;28;20425;-79
2021/03/31 08:12:01;;;;;;;22.25;10.68;;;384.40;1331.20;;;;;;5052407;28;20044;-79
2021/03/31 08:14:27;;;;;;;21.23;12.13;;;384.40;1331.20;;;;;;5047758;28;20408;-77
2021/03/31 08:16:55;;;;;;;20.40;11.50;;;384.40;1331.20;;;;;;5051830;28;20031;-78
2021/03/31 08:19:30;;;;;;;19.63;11.98;;;384.60;1382.40;;;;;;5051646;28;20105;-78
2021/03/31 08:21:57;;;;;;;18.40;11.57;;;384.50;1382.40;;;;;;5052114;28;20027;-78
2021/03/31 08:24:44;;;;;;;21.60;13.25;;;384.30;1382.40;;;;;;5053085;28;20282;-77
2021/03/31 08:27:12;;;;;;;28.05;14.38;;;384.40;1356.80;;;;;;5047568;28;20025;-79
2021/03/31 08:29:37;;;;;;;20.38;11.98;;;384.30;1356.80;;;;;;5035102;28;20045;-78
2021/03/31 08:32:06;;;;;;;20.55;11.90;;;384.40;1356.80;;;;;;5045302;28;20445;-78
2021/03/31 08:34:33;;;;;;;15.82;9.70;;;384.60;1382.40;;;;;;5054322;28;20029;-78
2021/03/31 08:37:02;;;;;;;16.27;10.60;;;384.70;1331.20;;;;;;5054530;28;20100;-78
2021/03/31 08:39:29;;;;;;;24.10;11.05;;;384.90;1305.60;;;;;;5057865;28;20028;-80
2021/03/31 08:41:56;;;;;;;18.92;9.75;;;384.90;1356.80;;;;;;5044698;28;20037;-79
2021/03/31 08:44:40;;;;;;;17.75;9.52;;;409.60;1305.60;;;;;;5045898;28;20060;-80
2021/03/31 08:47:21;;;;;;;17.70;10.45;;;409.60;1305.60;;;;;;5044725;28;20025;-80
2021/03/31 08:49:49;;;;;;;15.68;9.85;;;409.70;1305.60;;;;;;5041966;28;20416;-80
2021/03/31 08:52:20;;;;;;;18.10;7.97;;;409.70;1305.60;;;;;;5042277;28;20372;-79
2021/03/31 08:54:51;;;;;;;19.63;9.68;;;409.80;1356.80;;;;;;5043547;28;20061;-79
2021/03/31 08:57:18;;;;;;;23.77;9.05;;;409.90;1305.60;;;;;;5043245;28;20021;-79
2021/03/31 08:59:49;;;;;;;11.93;8.80;;;410.00;1356.80;;;;;;5042120;28;20040;-79
2021/03/31 09:02:19;;;;;;;18.95;9.15;;;410.10;1331.20;;;;;;5042000;28;20017;-78
2021/03/31 09:04:45;;;;;;;16.75;10.27;;;410.20;1305.60;;;;;;5033854;28;20460;-79
2021/03/31 09:07:12;;;;;;;16.77;10.25;;;410.30;1280.00;;;;;;5045686;28;20041;-80
2021/03/31 09:09:39;;;;;;;13.88;10.25;;;410.30;1280.00;;;;;;5054002;28;20408;-81
2021/03/31 09:12:08;;;;;;;14.35;10.10;;;410.40;1254.40;;;;;;5053865;28;20060;-80
2021/03/31 09:14:35;;;;;;;17.08;10.35;;;410.50;1280.00;;;;;;5053826;28;20460;-81
2021/03/31 09:17:06;;;;;;;15.00;10.10;;;435.20;1280.00;;;;;;5059280;28;20027;-81
2021/03/31 09:19:35;;;;;;;17.45;9.73;;;435.30;1254.40;;;;;;5061642;28;20032;-80
2021/03/31 09:22:11;;;;;;;18.33;9.68;;;435.30;1254.40;;;;;;5053626;28;20071;-81
2021/03/31 09:25:01;;;;;;;24.05;10.57;;;435.30;1254.40;;;;;;5065972;28;20033;-81
2021/03/31 09:27:30;;;;;;;14.18;9.32;;;435.50;1305.60;;;;;;5055625;28;20029;-82
2021/03/31 09:29:59;;;;;;;19.48;10.30;;;435.60;1254.40;;;;;;5067673;28;20487;-82
2021/03/31 09:34:54;;;;;;;18.80;10.10;;;435.90;1203.20;;;;;;5041890;28;20031;-80
2021/03/31 09:37:20;;;;;;;15.30;9.43;;;435.90;1228.80;;;;;;5046154;28;20377;-79
2021/03/31 09:39:56;;;;;;;16.65;9.70;;;436.10;1203.20;;;;;;5053618;28;20090;-80
2021/03/31 09:42:24;;;;;;;20.15;10.77;;;460.80;1228.80;;;;;;5049226;28;20390;-82
2021/03/31 09:44:52;;;;;;;17.45;10.55;;;460.90;1177.60;;;;;;5047094;28;20036;-79
2021/03/31 09:47:21;;;;;;;13.77;10.15;;;460.90;1177.60;;;;;;5050288;28;20033;-79
2021/03/31 09:49:49;;;;;;;26.42;9.95;;;461.10;1177.60;;;;;;5044610;28;20035;-79
2021/03/31 09:52:16;;;;;;;17.13;9.77;;;461.40;1177.60;;;;;;5051345;28;20025;-79
2021/03/31 09:54:46;;;;;;;15.68;9.20;;;461.60;1152.00;;;;;;5036561;28;20023;-79
2021/03/31 09:57:15;;;;;;;17.70;9.30;;;461.70;1100.80;;;;;;5050503;28;20535;-79
2021/03/31 09:59:42;;;;;;;14.60;9.45;;;486.50;1075.20;;;;;;5036737;28;20026;-83
2021/03/31 10:02:12;;;;;;;17.30;9.70;;;486.70;1075.20;;;;;;5049576;28;20047;-81
2021/03/31 10:04:40;;;;;;;18.35;10.23;;;486.70;1075.20;;;;;;5041862;28;20025;-80
2021/03/31 10:07:16;;;;;;;23.00;11.02;;;486.80;1049.60;;;;;;5041267;28;20029;-79
2021/03/31 10:09:48;;;;;;;19.77;9.52;;;487.10;1075.20;;;;;;5061863;28;20021;-80
2021/03/31 10:12:26;;;;;;;19.13;11.38;;;512.00;1049.60;;;;;;5059460;28;20045;-80
2021/03/31 10:14:55;;;;;;;15.68;10.23;;;512.00;998.40;;;;;;5059564;28;20035;-80
2021/03/31 10:17:22;;;;;;;18.40;9.52;;;512.40;998.40;;;;;;5052376;28;20092;-79
2021/03/31 10:19:49;;;;;;;13.60;7.65;;;512.60;998.40;;;;;;5049521;28;20053;-79
2021/03/31 10:22:16;;;;;;;16.45;8.35;;;512.70;947.20;;;;;;5053796;28;20522;-79
2021/03/31 10:24:49;;;;;;;14.77;7.70;;;537.60;972.80;;;;;;5050789;28;20469;-79
2021/03/31 10:27:17;;;;;;;17.33;9.63;;;537.80;998.40;;;;;;5052315;28;20017;-79
2021/03/31 10:29:48;;;;;;;15.20;8.75;;;537.90;972.80;;;;;;5049503;28;20021;-79
2021/03/31 10:32:16;;;;;;;15.23;8.40;;;537.90;998.40;;;;;;5052289;28;20021;-79
2021/03/31 10:34:48;;;;;;;12.70;8.52;;;537.80;947.20;;;;;;5052557;28;20029;-79
2021/03/31 10:37:28;;;;;;;13.43;7.95;;;538.20;972.80;;;;;;5041717;28;20098;-78
2021/03/31 10:48:53;;;;;;;14.25;6.85;;;537.90;947.20;;;;;;5043877;28;20062;-79
2021/03/31 10:54:13;;;;;;;10.95;6.20;;;563.20;998.40;;;;;;5047288;28;20150;-80
2021/03/31 10:56:47;;;;;;;9.43;5.35;;;563.40;921.60;;;;;;5049877;28;20013;-79
2021/03/31 10:59:13;;;;;;;13.98;6.20;;;563.60;947.20;;;;;;5054765;28;20022;-79
2021/03/31 11:01:39;;;;;;;9.55;5.88;;;563.60;896.00;;;;;;5055916;28;20404;-79
2021/03/31 11:04:04;;;;;;;10.05;6.03;;;563.80;921.60;;;;;;5050355;28;20477;-79
2021/03/31 11:06:31;;;;;;;13.40;6.72;;;563.80;870.40;;;;;;5056286;28;20070;-79
2021/03/31 11:08:57;;;;;;;10.75;5.75;;;563.90;870.40;;;;;;5056027;28;20028;-79
2021/03/31 11:11:23;;;;;;;9.63;5.57;;;564.10;870.40;;;;;;5036620;28;20050;-79
2021/03/31 11:13:48;;;;;;;10.70;5.07;;;564.10;896.00;;;;;;5013993;28;20413;-79
2021/03/31 11:16:15;;;;;;;8.88;5.15;;;588.80;921.60;;;;;;5036226;28;20017;-85
2021/03/31 11:21:50;;;;;;;7.13;4.88;;;564.10;870.40;;;;;;5030355;28;20097;-80
2021/03/31 11:26:42;;;;;;;6.65;4.10;;;564.10;870.40;;;;;;5036138;28;20044;-81
2021/03/31 11:29:08;;;;;;;8.95;4.68;;;589.00;844.80;;;;;;5032545;28;20033;-81
2021/03/31 11:31:34;;;;;;;9.38;4.68;;;589.00;844.80;;;;;;5024003;28;20509;-81
2021/03/31 11:34:00;;;;;;;9.02;4.07;;;589.10;896.00;;;;;;5024952;28;20022;-81
2021/03/31 11:36:26;;;;;;;8.52;5.03;;;589.10;896.00;;;;;;5007285;28;20022;-83
2021/03/31 11:38:53;;;;;;;6.93;4.53;;;589.10;870.40;;;;;;5024744;28;20057;-81
2021/03/31 11:41:19;;;;;;;8.77;4.80;;;589.20;870.40;;;;;;5018414;28;20494;-78
2021/03/31 11:43:45;;;;;;;9.50;5.07;;;589.30;870.40;;;;;;5015999;28;20436;-80
2021/03/31 11:46:11;;;;;;;6.85;4.20;;;589.30;844.80;;;;;;5005377;28;20094;-80
2021/03/31 11:48:36;;;;;;;8.85;4.22;;;589.20;844.80;;;;;;5035257;28;20029;-79
2021/03/31 11:51:02;;;;;;;7.93;5.40;;;589.10;896.00;;;;;;5035761;28;20030;-78
2021/03/31 11:53:29;;;;;;;10.60;4.47;;;589.30;870.40;;;;;;5035645;28;20495;-79
2021/03/31 11:55:59;;;;;;;7.93;4.47;;;589.00;870.40;;;;;;5035671;28;20064;-78
2021/03/31 11:58:26;;;;;;;12.27;5.25;;;589.10;870.40;;;;;;5035518;28;20025;-79
2021/03/31 12:00:52;;;;;;;8.52;4.78;;;589.30;870.40;;;;;;5034636;28;20022;-79
2021/03/31 12:03:18;;;;;;;8.50;4.03;;;589.40;844.80;;;;;;5035583;28;20035;-78
2021/03/31 12:05:44;;;;;;;9.00;4.75;;;589.40;819.20;;;;;;5035544;28;20503;-81
2021/03/31 12:08:10;;;;;;;8.82;4.72;;;589.40;844.80;;;;;;5032804;28;20022;-79
2021/03/31 12:10:36;;;;;;;7.45;5.05;;;589.30;870.40;;;;;;5034504;28;20045;-78
2021/03/31 12:13:01;;;;;;;8.23;4.65;;;589.30;844.80;;;;;;5035043;28;20025;-77
2021/03/31 12:15:27;;;;;;;9.88;3.97;;;589.30;870.40;;;;;;5035051;28;20025;-79
2021/03/31 12:17:54;;;;;;;7.78;4.28;;;589.40;844.80;;;;;;5047674;28;20096;-76
2021/03/31 12:20:20;;;;;;;5.70;3.55;;;589.50;896.00;;;;;;5050345;28;20046;-79
2021/03/31 12:22:45;;;;;;;8.23;4.75;;;589.60;870.40;;;;;;5035041;28;20025;-79
2021/03/31 12:25:12;;;;;;;9.50;4.25;;;589.50;870.40;;;;;;5030775;28;20856;-78
2021/03/31 12:27:40;;;;;;;9.52;4.88;;;589.60;819.20;;;;;;5034973;28;20022;-76
2021/03/31 12:30:09;;;;;;;9.25;5.63;;;614.40;844.80;;;;;;5032816;28;20032;-75
2021/03/31 12:32:35;;;;;;;8.82;5.75;;;589.70;870.40;;;;;;5025233;28;20053;-76
2021/03/31 12:35:02;;;;;;;8.93;4.85;;;589.70;844.80;;;;;;5031139;28;20413;-77
2021/03/31 12:37:28;;;;;;;7.03;4.70;;;589.50;870.40;;;;;;5025096;28;20021;-75
2021/03/31 12:39:54;;;;;;;11.98;4.18;;;589.60;844.80;;;;;;5025126;28;20025;-76